Aérodrome :
LOGIN :

S'inscrire | Disclaimer

   EN    FR    IT 

 










Légende :    VFR   VFR Marginal   IFR   IFR Intensif   IFR Très Intensif
Visi : 
Plafond : 
>= 8 km
>= 3000ft
5 à 8 km
1000 à 3000 ft
1500m à 5 km
500 à 1000 ft
800 à 1500m
200 à 500 ft
< 800m
< 200 ft
Symboles :   Orages  Brouillard  Fortes neiges  Fortes précipitations  Vent > 20 kt
SIGMETs :   Divers  Orages  Givrage  Turbulence  Onde Orograph.  Cendres Volcan.







- Altitude de l'aérodrome : 160 ft
- Code IATA : LRT
- Voir les cartes d'approche


LFRH - Lorient Lann Bihoue

DERNIER METAR :
  • 221930Z AUTO 25016KT 2400 BR VV/// 18/18 Q1017 TEMPO 0800 FG BECMG 25015G25KT

METARs EXPIRÉS :
  • 221900Z AUTO 24017KT 2100 -RA BR VV/// 18/18 Q1017 TEMPO 0800 FG OVC002 BECMG 25015G25KT
  • 221830Z AUTO 24017KT 2700 BR OVC002 18/18 Q1017 TEMPO 0800 FG VV/// BECMG 25015G25KT
  • 221800Z AUTO 24017KT 3300 BR OVC002 18/18 Q1017 BECMG 25015G25KT
  • 221730Z AUTO 24016KT 1800 BR VV/// 18/18 Q1017 BECMG 25015G25KT 3000 BR OVC002
  • 221700Z AUTO 24017KT 1600 1400 R25/P2000 R07/P2000 BR OVC002 18/18 Q1017 TEMPO RADZ BECMG 26015G25KT
  • 221630Z AUTO 24019KT 3600 BR OVC002 18/18 Q1016 BECMG 26015G25KT 2000 -DZ BR

TAF TAF LFRH
Valide du 22 à 18h jusqu'au 23 à 18h UTC


221700Z 2218/2318 25015G25KT 3000 BR OVC002
TEMPO 2220/2306 0800 FG VV///
PROB40
TEMPO 2222/2306 0500 FG
BECMG 2308/2310 3000 RADZ
BECMG 2312/2314 36015G30KT 9999 NSW SCT025
Pas de NOTAMs connus pour ce terrain.
1 SIGMET publié pour la FIR Brest (LFRR) :
 
Turbulence forte
LFRR SIGMET 3 VALID 221600/222000 LFPW
LFRR BREST FIR/UIR SEV TURB FCST WI N4915 W00015 - N4815 W00015 - N4815 W00300 - N4915 W00230 - N4915 W00015 SFC/FL060 MOV E 15KT WKN=



MET'MAP, la Météo Aéronautique d'un coup d'oeil ! - Copyright ORBIFLY Décembre 2007 - Disclaimer

ORBIFLY MET'MAP TEAM :

Programmation & Développement : Alexandra Zaïnal
Conception & Développement : Baudouin d'Aumeries
Co-Programmation & Développement : Marc-Olivier Méhu
Soutien technique & logistique : Manuel Goepfert

Contact : metmap@orbifly.com




SOURCES & CREDITS :

   NOAA